Time;durP1;ratioP1;P1;durP2;ratioP2;P2;SDS_P1;SDS_P2;PMS_P1;PMS_P2;Temp;Humidity;BMP_temperature;BMP_pressure;BME280_temperature;BME280_humidity;BME280_pressure;Samples;Min_cycle;Max_cycle;Signal;HPM_P1;HPM_P2
2021/12/28 00:01:02;;;;;;;120.15;25.80;;;9.00;95.00;;;;;;5091113;28;20040;-75
2021/12/28 00:03:30;;;;;;;112.60;24.50;;;9.10;95.00;;;;;;5088839;28;20049;-75
2021/12/28 00:06:01;;;;;;;114.13;25.83;;;9.00;95.00;;;;;;5091038;28;21126;-75
2021/12/28 00:08:29;;;;;;;124.70;26.27;;;9.00;95.00;;;;;;5092595;28;20044;-75
2021/12/28 00:10:57;;;;;;;113.40;25.85;;;9.00;95.00;;;;;;5071654;28;20052;-75
2021/12/28 00:13:27;;;;;;;118.03;27.27;;;9.00;95.00;;;;;;5090981;28;20032;-75
2021/12/28 00:18:24;;;;;;;127.18;28.98;;;9.00;95.00;;;;;;5094046;28;20051;-75
2021/12/28 00:20:58;;;;;;;115.78;26.52;;;9.00;95.00;;;;;;5074387;28;20052;-75
2021/12/28 00:23:32;;;;;;;131.60;27.95;;;9.00;95.00;;;;;;5092392;28;20041;-76
2021/12/28 00:26:00;;;;;;;124.70;27.40;;;9.00;95.00;;;;;;5092108;28;20040;-75
2021/12/28 00:28:28;;;;;;;133.90;28.70;;;9.00;95.00;;;;;;5075284;28;20059;-75
2021/12/28 00:30:57;;;;;;;128.32;27.83;;;9.00;95.00;;;;;;5075304;28;20048;-75
2021/12/28 00:33:25;;;;;;;146.93;29.05;;;9.00;95.00;;;;;;5093527;28;20047;-75
2021/12/28 00:35:53;;;;;;;136.07;29.10;;;9.00;95.00;;;;;;5092033;28;20059;-76
2021/12/28 00:38:23;;;;;;;148.07;29.38;;;9.00;95.00;;;;;;5091860;28;20048;-76
2021/12/28 00:40:57;;;;;;;134.57;29.95;;;9.00;95.00;;;;;;5064088;28;20048;-76
2021/12/28 00:43:27;;;;;;;133.27;30.02;;;9.00;95.10;;;;;;5074327;28;20081;-76
2021/12/28 00:45:55;;;;;;;141.30;30.98;;;9.00;95.10;;;;;;5090478;28;20048;-76
2021/12/28 00:48:23;;;;;;;153.05;32.55;;;9.00;95.10;;;;;;5074152;28;20051;-76
2021/12/28 00:50:52;;;;;;;151.70;31.70;;;9.00;95.10;;;;;;5091586;28;20059;-76
2021/12/28 00:53:22;;;;;;;151.77;31.85;;;9.00;95.10;;;;;;5076871;28;20499;-76
2021/12/28 00:55:50;;;;;;;153.73;29.95;;;9.00;95.10;;;;;;5086557;28;20463;-76
2021/12/28 00:58:18;;;;;;;143.88;30.48;;;9.00;95.10;;;;;;5091734;28;20036;-76
2021/12/28 01:00:47;;;;;;;171.73;32.00;;;9.00;95.10;;;;;;5091853;28;20508;-76
2021/12/28 01:03:16;;;;;;;173.88;30.70;;;9.10;95.10;;;;;;5092736;28;20048;-76
2021/12/28 01:05:44;;;;;;;149.85;29.95;;;9.10;95.10;;;;;;5076472;28;20501;-76
2021/12/28 01:08:13;;;;;;;154.13;30.58;;;9.10;95.10;;;;;;5086079;28;20049;-76
2021/12/28 01:10:46;;;;;;;157.15;30.17;;;9.10;95.10;;;;;;5072385;28;20044;-76
2021/12/28 01:13:14;;;;;;;156.05;29.77;;;9.10;95.10;;;;;;5091317;28;20047;-76
2021/12/28 01:15:43;;;;;;;153.68;29.33;;;9.10;95.10;;;;;;5086509;28;20052;-76
2021/12/28 01:18:12;;;;;;;150.15;30.05;;;9.10;95.10;;;;;;5073304;28;20266;-77
2021/12/28 01:20:42;;;;;;;133.82;28.88;;;9.10;95.10;;;;;;5088195;28;20051;-76
2021/12/28 01:23:10;;;;;;;142.20;29.92;;;9.10;95.10;;;;;;5077185;28;20048;-76
2021/12/28 01:25:38;;;;;;;144.48;28.70;;;9.10;95.10;;;;;;5076084;28;20039;-76
2021/12/28 01:28:07;;;;;;;128.68;28.75;;;9.10;95.10;;;;;;5063093;28;20045;-76
2021/12/28 01:30:36;;;;;;;141.35;29.40;;;9.10;95.10;;;;;;5073647;28;20509;-76
2021/12/28 01:33:04;;;;;;;150.55;31.05;;;9.10;95.10;;;;;;5073527;28;20052;-76
2021/12/28 01:35:33;;;;;;;172.45;31.80;;;9.10;95.10;;;;;;5092473;28;20040;-76
2021/12/28 01:38:02;;;;;;;155.30;32.60;;;9.10;95.10;;;;;;5093487;28;20498;-76
2021/12/28 01:40:33;;;;;;;133.75;29.63;;;9.10;95.10;;;;;;5092581;28;20376;-76
2021/12/28 01:43:11;;;;;;;143.95;28.85;;;9.10;95.10;;;;;;5092755;28;20067;-76
2021/12/28 01:45:43;;;;;;;153.63;30.40;;;9.10;95.10;;;;;;5093268;28;20040;-76
2021/12/28 01:48:23;;;;;;;156.75;29.33;;;9.10;95.10;;;;;;5092976;28;20403;-76
2021/12/28 01:50:54;;;;;;;171.40;31.45;;;9.10;95.10;;;;;;5093301;28;20055;-76
2021/12/28 01:53:23;;;;;;;179.75;30.05;;;9.10;95.10;;;;;;5091963;28;20517;-76
2021/12/28 01:55:55;;;;;;;189.05;29.95;;;9.10;95.10;;;;;;5078110;28;20043;-76
2021/12/28 01:58:23;;;;;;;188.20;29.52;;;9.10;95.10;;;;;;5092379;28;20055;-76
2021/12/28 02:00:53;;;;;;;154.70;28.35;;;9.10;95.10;;;;;;5075340;28;20040;-76
2021/12/28 02:03:23;;;;;;;187.80;29.23;;;9.10;95.10;;;;;;5090354;28;20055;-76
2021/12/28 02:05:51;;;;;;;179.15;29.45;;;9.20;95.10;;;;;;5089445;28;20048;-77
2021/12/28 02:08:20;;;;;;;213.70;30.63;;;9.20;95.10;;;;;;5092776;28;20058;-76
2021/12/28 02:10:51;;;;;;;227.70;30.13;;;9.20;95.10;;;;;;5092931;28;20048;-76
2021/12/28 02:13:19;;;;;;;286.10;30.98;;;9.20;95.10;;;;;;5092364;28;20048;-76
2021/12/28 02:15:48;;;;;;;304.15;30.33;;;9.20;95.10;;;;;;5092853;28;20036;-76
2021/12/28 02:18:19;;;;;;;278.20;31.13;;;9.20;95.10;;;;;;5092784;28;20063;-76
2021/12/28 02:20:47;;;;;;;323.48;32.72;;;9.20;95.10;;;;;;5074531;28;20040;-76
2021/12/28 02:23:15;;;;;;;321.45;32.13;;;9.10;95.10;;;;;;5091430;28;20487;-76
2021/12/28 02:25:44;;;;;;;235.57;27.85;;;9.20;95.10;;;;;;5092258;28;20521;-76
2021/12/28 02:28:13;;;;;;;209.15;27.63;;;9.10;94.90;;;;;;5092906;28;20055;-76
2021/12/28 02:30:44;;;;;;;232.50;29.80;;;8.90;94.60;;;;;;5092695;28;20047;-76
2021/12/28 02:33:12;;;;;;;303.92;33.28;;;8.80;94.60;;;;;;5092119;28;20051;-76
2021/12/28 02:35:40;;;;;;;386.42;34.50;;;8.70;94.60;;;;;;5092621;28;20051;-76
2021/12/28 02:38:10;;;;;;;403.80;32.88;;;8.70;94.80;;;;;;5092711;28;20506;-76
2021/12/28 02:40:40;;;;;;;624.50;37.53;;;8.60;94.90;;;;;;5092773;28;20036;-76
2021/12/28 02:43:10;;;;;;;415.88;31.40;;;8.60;95.00;;;;;;5088371;28;20056;-76
2021/12/28 02:45:47;;;;;;;329.75;28.70;;;8.50;95.10;;;;;;5092570;28;20036;-76
2021/12/28 02:48:15;;;;;;;643.17;33.83;;;8.60;95.20;;;;;;5092099;28;20047;-76
2021/12/28 02:50:50;;;;;;;;;;;8.50;95.30;;;;;;5090532;28;20048;-75
2021/12/28 02:53:19;;;;;;;794.88;34.47;;;8.60;95.40;;;;;;5071933;28;19921;-76
2021/12/28 02:55:48;;;;;;;763.97;35.58;;;8.50;95.40;;;;;;5082307;28;20431;-76
2021/12/28 02:58:50;;;;;;;870.85;34.28;;;8.60;95.50;;;;;;5070943;28;20507;-75
2021/12/28 03:01:27;;;;;;;1038.35;36.35;;;8.60;95.50;;;;;;5086080;28;20045;-75
2021/12/28 03:03:58;;;;;;;901.90;32.95;;;8.60;95.50;;;;;;5082087;28;20048;-76
2021/12/28 03:06:26;;;;;;;801.42;31.98;;;8.60;95.50;;;;;;5084736;28;20037;-75
2021/12/28 03:08:55;;;;;;;751.35;33.78;;;8.70;95.50;;;;;;5084080;28;20466;-76
2021/12/28 03:11:25;;;;;;;746.85;34.67;;;8.70;95.50;;;;;;5088808;28;20509;-76
2021/12/28 03:13:58;;;;;;;663.22;30.70;;;8.80;95.50;;;;;;5089374;28;20391;-76
2021/12/28 03:16:29;;;;;;;876.55;33.25;;;8.70;95.50;;;;;;5072036;28;20476;-76
2021/12/28 03:18:57;;;;;;;676.80;27.85;;;8.70;95.50;;;;;;5073889;28;20060;-76
2021/12/28 03:21:25;;;;;;;615.05;26.90;;;8.70;95.40;;;;;;5073027;28;20384;-76
2021/12/28 03:23:54;;;;;;;746.78;34.40;;;8.80;95.40;;;;;;5086480;28;20041;-76
2021/12/28 03:26:22;;;;;;;761.47;31.25;;;8.80;95.40;;;;;;5091986;28;20630;-77
2021/12/28 03:28:50;;;;;;;769.90;30.55;;;8.80;95.50;;;;;;5094499;28;20055;-76
2021/12/28 03:31:21;;;;;;;617.55;27.27;;;8.80;95.50;;;;;;5091030;28;20051;-76
2021/12/28 03:33:52;;;;;;;841.88;32.22;;;8.80;95.40;;;;;;5090190;28;20058;-76
2021/12/28 03:36:22;;;;;;;679.35;27.48;;;8.80;95.50;;;;;;5089633;28;20499;-76
2021/12/28 03:38:50;;;;;;;809.72;30.15;;;8.80;95.40;;;;;;5093127;28;20051;-76
2021/12/28 03:41:19;;;;;;;521.63;26.20;;;8.80;95.40;;;;;;5080244;28;20508;-75
2021/12/28 03:43:50;;;;;;;695.00;30.83;;;8.80;95.40;;;;;;5093186;28;20041;-76
2021/12/28 03:46:19;;;;;;;763.53;29.02;;;8.80;95.40;;;;;;5076545;28;20059;-76
2021/12/28 03:48:47;;;;;;;742.30;32.42;;;8.80;95.40;;;;;;5080154;28;20043;-76
2021/12/28 03:51:15;;;;;;;885.30;33.28;;;8.80;95.40;;;;;;5093936;28;20043;-76
2021/12/28 03:53:46;;;;;;;865.25;34.83;;;8.80;95.50;;;;;;5093434;28;20089;-76
2021/12/28 03:56:15;;;;;;;685.30;28.27;;;8.80;95.50;;;;;;5078159;28;20886;-76
2021/12/28 03:58:44;;;;;;;868.55;34.25;;;8.80;95.40;;;;;;5090419;28;20048;-76
2021/12/28 04:01:15;;;;;;;601.65;28.27;;;8.80;95.50;;;;;;5075471;28;20048;-76
2021/12/28 04:03:44;;;;;;;682.53;33.42;;;8.80;95.50;;;;;;5093779;28;20043;-76
2021/12/28 04:06:12;;;;;;;616.70;31.60;;;8.80;95.50;;;;;;5091257;28;20066;-76
2021/12/28 04:08:42;;;;;;;536.72;29.40;;;8.80;95.50;;;;;;5086570;28;20040;-76
2021/12/28 04:11:44;;;;;;;620.05;32.25;;;8.90;95.50;;;;;;5077995;28;20044;-76
2021/12/28 04:14:06;;;;;;;682.10;34.08;;;8.80;95.50;;;;;;5067137;28;20048;-76
2021/12/28 04:16:34;;;;;;;766.38;34.35;;;8.90;95.50;;;;;;5074900;28;20056;-76
2021/12/28 04:19:04;;;;;;;814.78;36.72;;;8.90;95.50;;;;;;5075368;28;20059;-76
2021/12/28 04:21:34;;;;;;;614.88;31.63;;;8.80;95.40;;;;;;5086148;28;20047;-76
2021/12/28 04:24:03;;;;;;;945.78;37.03;;;8.90;95.40;;;;;;5092487;28;20047;-76
2021/12/28 04:26:31;;;;;;;733.70;35.08;;;8.90;95.50;;;;;;5093347;28;20063;-76
2021/12/28 04:28:58;;;;;;;815.22;34.72;;;8.90;95.40;;;;;;5087993;28;20052;-76
2021/12/28 04:31:26;;;;;;;842.28;35.53;;;8.90;95.40;;;;;;5085031;28;20488;-76
2021/12/28 04:33:54;;;;;;;715.10;34.88;;;8.90;95.40;;;;;;5075514;28;20064;-76
2021/12/28 04:36:27;;;;;;;778.85;34.42;;;8.80;95.50;;;;;;5075493;28;20037;-76
2021/12/28 04:38:55;;;;;;;933.60;36.22;;;8.90;95.40;;;;;;5077115;28;20044;-75
2021/12/28 04:41:23;;;;;;;784.25;35.38;;;8.90;95.40;;;;;;5074527;28;20469;-75
2021/12/28 04:43:50;;;;;;;840.28;37.13;;;8.90;95.50;;;;;;5075576;28;20052;-75
2021/12/28 04:46:18;;;;;;;915.53;38.42;;;8.90;95.50;;;;;;5076483;28;20072;-75
2021/12/28 04:48:46;;;;;;;1062.38;39.10;;;8.90;95.40;;;;;;5059264;28;20048;-75
2021/12/28 04:51:13;;;;;;;850.72;36.35;;;8.90;95.50;;;;;;5091168;28;20059;-75
2021/12/28 04:53:41;;;;;;;711.17;33.22;;;8.90;95.50;;;;;;5092267;28;20040;-75
2021/12/28 04:56:09;;;;;;;770.53;35.30;;;8.90;95.50;;;;;;5074007;28;20044;-75
2021/12/28 04:58:36;;;;;;;692.78;32.47;;;8.90;95.50;;;;;;5074885;28;20067;-75
2021/12/28 05:01:04;;;;;;;651.42;31.10;;;8.90;95.50;;;;;;5079226;28;20036;-75
2021/12/28 05:03:32;;;;;;;707.25;32.92;;;8.90;95.40;;;;;;5074920;28;20152;-75
2021/12/28 05:06:00;;;;;;;543.45;28.05;;;8.90;95.40;;;;;;5056890;28;20052;-75
2021/12/28 05:08:28;;;;;;;351.00;25.60;;;8.90;95.40;;;;;;5093426;28;20051;-75
2021/12/28 05:10:55;;;;;;;385.80;26.25;;;8.90;95.40;;;;;;5079664;28;20041;-74
2021/12/28 05:13:23;;;;;;;474.02;26.90;;;8.90;95.40;;;;;;5074715;28;20045;-74
2021/12/28 05:15:52;;;;;;;508.20;27.58;;;8.90;95.50;;;;;;5061110;28;20040;-74
2021/12/28 05:18:20;;;;;;;491.55;24.58;;;8.90;95.50;;;;;;5091672;28;20051;-74
2021/12/28 05:20:48;;;;;;;520.83;26.45;;;8.90;95.40;;;;;;5075746;28;20051;-74
2021/12/28 05:23:16;;;;;;;459.80;25.25;;;9.00;95.50;;;;;;5074909;28;20052;-74
2021/12/28 05:25:44;;;;;;;588.17;28.05;;;9.00;95.50;;;;;;5056167;28;20040;-74
2021/12/28 05:28:12;;;;;;;393.75;24.17;;;8.90;95.50;;;;;;5074191;28;20051;-73
2021/12/28 05:30:39;;;;;;;457.83;25.55;;;8.90;95.40;;;;;;5074587;28;20040;-74
2021/12/28 05:33:07;;;;;;;320.92;23.13;;;9.00;95.40;;;;;;5092680;28;20055;-74
2021/12/28 05:35:34;;;;;;;290.60;22.75;;;9.00;95.40;;;;;;5092300;28;20039;-73
2021/12/28 05:38:02;;;;;;;225.05;22.40;;;9.00;95.40;;;;;;5092496;28;20513;-72
2021/12/28 05:40:30;;;;;;;120.20;18.75;;;9.00;95.40;;;;;;5057470;28;20044;-72
2021/12/28 05:42:57;;;;;;;110.88;17.35;;;9.00;95.40;;;;;;5073774;28;20048;-72
2021/12/28 05:45:25;;;;;;;129.38;18.00;;;9.00;95.40;;;;;;5075180;28;20779;-72
2021/12/28 05:47:53;;;;;;;144.13;18.65;;;9.00;95.40;;;;;;5073076;28;20055;-72
2021/12/28 05:50:20;;;;;;;104.78;16.40;;;9.00;95.40;;;;;;5089485;28;20044;-72
2021/12/28 05:52:52;;;;;;;112.43;16.25;;;9.00;95.40;;;;;;5091480;28;20052;-72
2021/12/28 05:55:20;;;;;;;69.13;13.55;;;9.00;95.40;;;;;;5073563;28;20047;-72
2021/12/28 05:57:47;;;;;;;93.85;14.40;;;9.00;95.40;;;;;;5091209;28;20044;-72
2021/12/28 06:00:16;;;;;;;84.28;14.30;;;9.00;95.40;;;;;;5072953;28;20499;-73
2021/12/28 06:02:45;;;;;;;67.53;12.65;;;9.00;95.40;;;;;;5089202;28;20058;-73
2021/12/28 06:05:13;;;;;;;62.78;11.13;;;9.00;95.40;;;;;;5091311;28;20047;-73
2021/12/28 06:07:40;;;;;;;47.25;10.40;;;9.00;95.40;;;;;;5091255;28;20071;-73
2021/12/28 06:10:09;;;;;;;39.63;9.90;;;9.00;95.40;;;;;;5078999;28;20040;-73
2021/12/28 06:12:37;;;;;;;34.00;9.60;;;9.00;95.40;;;;;;5072261;28;20036;-73
2021/12/28 06:15:05;;;;;;;40.75;10.55;;;9.00;95.40;;;;;;5073671;28;20053;-73
2021/12/28 06:17:32;;;;;;;33.30;9.50;;;9.00;95.40;;;;;;5075104;28;20041;-73
2021/12/28 06:20:00;;;;;;;33.33;10.10;;;9.00;95.40;;;;;;5073728;28;20052;-73
2021/12/28 06:22:28;;;;;;;25.48;8.80;;;9.00;95.40;;;;;;5055785;28;20561;-73
2021/12/28 06:24:55;;;;;;;33.78;7.47;;;9.00;95.40;;;;;;5072844;28;20067;-73
2021/12/28 06:27:23;;;;;;;22.65;7.72;;;9.00;95.40;;;;;;5071490;28;20056;-73
2021/12/28 06:29:51;;;;;;;17.52;7.65;;;9.00;95.30;;;;;;5089082;28;20048;-73
2021/12/28 06:32:18;;;;;;;19.77;8.10;;;9.00;95.30;;;;;;5056578;28;20040;-74
2021/12/28 06:34:46;;;;;;;25.38;9.52;;;9.00;95.30;;;;;;5054337;28;20049;-74
2021/12/28 06:37:13;;;;;;;33.58;10.60;;;9.00;95.30;;;;;;5073485;28;20049;-74
2021/12/28 06:39:41;;;;;;;66.80;12.27;;;9.00;95.20;;;;;;5073174;28;20056;-74
2021/12/28 06:42:09;;;;;;;23.85;10.52;;;9.00;95.30;;;;;;5060588;28;20045;-73
2021/12/28 06:44:36;;;;;;;27.90;10.35;;;9.00;95.20;;;;;;5073214;28;20048;-75
2021/12/28 06:47:04;;;;;;;54.22;11.80;;;9.00;95.20;;;;;;5072219;28;20045;-74
2021/12/28 06:49:36;;;;;;;27.33;10.45;;;8.90;95.20;;;;;;5090294;28;20048;-75
2021/12/28 06:52:06;;;;;;;83.57;11.32;;;9.00;95.20;;;;;;5088775;28;20040;-75
2021/12/28 06:54:37;;;;;;;22.90;9.93;;;9.00;95.20;;;;;;5089251;28;20048;-75
2021/12/28 06:57:07;;;;;;;21.63;10.20;;;9.00;95.10;;;;;;5062464;28;20402;-75
2021/12/28 06:59:43;;;;;;;28.45;11.98;;;9.00;95.10;;;;;;5090073;28;20044;-75
2021/12/28 07:02:13;;;;;;;72.22;15.15;;;8.90;95.10;;;;;;5084290;28;20045;-75
2021/12/28 07:04:41;;;;;;;31.05;12.35;;;9.00;95.10;;;;;;5088987;28;20529;-73
2021/12/28 07:07:10;;;;;;;165.20;18.40;;;9.00;95.10;;;;;;5090478;28;20040;-73
2021/12/28 07:09:38;;;;;;;28.50;11.77;;;9.00;95.10;;;;;;5090202;28;20064;-73
2021/12/28 07:12:06;;;;;;;26.27;11.75;;;9.00;95.10;;;;;;5089803;28;20507;-73
2021/12/28 07:14:33;;;;;;;21.55;10.45;;;9.00;95.10;;;;;;5090122;28;20056;-73
2021/12/28 07:17:01;;;;;;;22.67;10.10;;;9.00;95.10;;;;;;5089763;28;20028;-72
2021/12/28 07:19:29;;;;;;;20.25;9.57;;;9.00;95.10;;;;;;5088570;28;20052;-72
2021/12/28 07:21:57;;;;;;;17.73;9.73;;;9.00;95.00;;;;;;5089930;28;20059;-72
2021/12/28 07:24:24;;;;;;;18.30;9.27;;;8.90;95.00;;;;;;5088202;28;20502;-72
2021/12/28 07:26:53;;;;;;;21.15;10.50;;;8.90;94.90;;;;;;5090184;28;20052;-72
2021/12/28 07:29:21;;;;;;;7.47;4.75;;;8.90;94.90;;;;;;5089942;28;20063;-72
2021/12/28 07:31:49;;;;;;;5.70;3.92;;;8.90;94.90;;;;;;5084180;28;20060;-72
2021/12/28 07:34:18;;;;;;;6.53;4.80;;;8.90;94.70;;;;;;5072598;28;20033;-73
2021/12/28 07:36:46;;;;;;;5.00;3.97;;;8.90;94.50;;;;;;5078956;28;20051;-73
2021/12/28 07:39:14;;;;;;;2.92;2.22;;;8.90;94.40;;;;;;5076747;28;20041;-73
2021/12/28 07:41:42;;;;;;;2.60;2.40;;;8.90;94.00;;;;;;5073281;28;20459;-73
2021/12/28 07:44:10;;;;;;;2.20;1.80;;;8.80;93.60;;;;;;5068933;28;20047;-73
2021/12/28 07:46:38;;;;;;;2.25;1.85;;;8.80;93.40;;;;;;5090174;28;20392;-73
2021/12/28 07:49:06;;;;;;;1.27;1.00;;;8.80;93.10;;;;;;5089754;28;20040;-72
2021/12/28 07:51:33;;;;;;;1.45;1.20;;;8.70;92.60;;;;;;5090220;28;20032;-73
2021/12/28 07:54:02;;;;;;;1.77;1.02;;;8.60;92.30;;;;;;5083006;28;20044;-72
2021/12/28 07:56:29;;;;;;;2.30;1.35;;;8.50;92.30;;;;;;5082719;28;20037;-73
2021/12/28 07:58:57;;;;;;;1.10;0.65;;;8.40;92.20;;;;;;5070690;28;20052;-72
2021/12/28 08:01:25;;;;;;;3.25;0.77;;;8.30;92.20;;;;;;5085668;28;20036;-73
2021/12/28 08:03:53;;;;;;;0.50;0.40;;;8.30;91.90;;;;;;5072629;28;20048;-73
2021/12/28 08:06:20;;;;;;;0.73;0.30;;;8.10;91.40;;;;;;5072581;28;20492;-73
2021/12/28 08:08:48;;;;;;;0.85;0.17;;;8.00;91.50;;;;;;5054638;28;20059;-73
2021/12/28 08:11:15;;;;;;;1.75;0.20;;;7.90;91.40;;;;;;5072518;28;20052;-74
2021/12/28 08:13:43;;;;;;;1.38;0.32;;;7.80;91.70;;;;;;5057205;28;20040;-74
2021/12/28 08:16:11;;;;;;;2.35;0.22;;;7.60;92.00;;;;;;5076153;28;20071;-74
2021/12/28 08:18:38;;;;;;;1.83;0.20;;;7.50;92.20;;;;;;5092953;28;20063;-73
2021/12/28 08:21:06;;;;;;;2.38;0.30;;;7.50;92.30;;;;;;5077657;28;20059;-73
2021/12/28 08:23:34;;;;;;;1.55;0.32;;;7.50;92.50;;;;;;5075937;28;20055;-73
2021/12/28 08:26:01;;;;;;;0.73;0.28;;;7.50;92.60;;;;;;5076076;28;20036;-73
2021/12/28 08:28:29;;;;;;;2.20;0.30;;;7.40;92.70;;;;;;5064483;28;20509;-73
2021/12/28 08:30:57;;;;;;;1.75;0.28;;;7.40;92.80;;;;;;5090503;28;20051;-73
2021/12/28 08:33:25;;;;;;;0.80;0.20;;;7.40;92.80;;;;;;5094178;28;20399;-73
2021/12/28 08:35:53;;;;;;;1.98;0.40;;;7.30;93.00;;;;;;5091143;28;20052;-74
2021/12/28 08:38:21;;;;;;;0.45;0.20;;;7.40;93.00;;;;;;5080624;28;20044;-73
2021/12/28 08:40:49;;;;;;;1.02;0.30;;;7.30;93.10;;;;;;5076436;28;20407;-73
2021/12/28 08:43:16;;;;;;;3.55;0.50;;;7.30;93.10;;;;;;5075498;28;20067;-73
2021/12/28 08:45:44;;;;;;;1.55;0.28;;;7.30;93.10;;;;;;5089428;28;20043;-73
2021/12/28 08:48:12;;;;;;;1.98;0.55;;;7.30;93.20;;;;;;5093581;28;20422;-73
2021/12/28 08:50:41;;;;;;;3.70;0.28;;;7.30;93.10;;;;;;5092110;28;20036;-73
2021/12/28 08:53:10;;;;;;;1.65;0.30;;;7.30;93.10;;;;;;5073519;28;20399;-73
2021/12/28 08:55:39;;;;;;;1.95;0.35;;;7.30;93.10;;;;;;5087555;28;20513;-73
2021/12/28 08:58:07;;;;;;;2.25;0.30;;;7.30;93.20;;;;;;5074257;28;20387;-73
2021/12/28 09:00:36;;;;;;;2.88;0.30;;;7.30;93.20;;;;;;5090356;28;20510;-73
2021/12/28 09:03:04;;;;;;;1.80;0.25;;;7.30;93.20;;;;;;5093057;28;20471;-73
2021/12/28 09:05:32;;;;;;;1.90;0.30;;;7.30;93.30;;;;;;5092819;28;20495;-73
2021/12/28 09:08:03;;;;;;;3.05;0.45;;;7.30;93.30;;;;;;5093594;28;20044;-73
2021/12/28 09:10:31;;;;;;;2.42;0.38;;;7.30;93.30;;;;;;5075005;28;20043;-73
2021/12/28 09:12:58;;;;;;;3.38;0.40;;;7.40;93.30;;;;;;5091190;28;20054;-73
2021/12/28 09:15:26;;;;;;;8.38;1.30;;;7.40;93.40;;;;;;5088448;28;20554;-73
2021/12/28 09:17:54;;;;;;;2.92;0.40;;;7.50;93.40;;;;;;5091087;28;20044;-73
2021/12/28 09:20:24;;;;;;;5.28;0.30;;;7.50;93.40;;;;;;5093120;28;20430;-73
2021/12/28 09:23:09;;;;;;;1.50;0.40;;;7.60;93.30;;;;;;5092116;28;20052;-73
2021/12/28 09:25:37;;;;;;;6.47;0.40;;;7.60;93.20;;;;;;5091262;28;20040;-73
2021/12/28 09:28:07;;;;;;;0.77;0.30;;;7.60;93.20;;;;;;5091897;28;20398;-73
2021/12/28 09:30:40;;;;;;;5.03;0.50;;;7.60;93.20;;;;;;5090682;28;20391;-73
2021/12/28 09:33:09;;;;;;;4.35;0.50;;;7.60;93.10;;;;;;5090102;28;20055;-72
2021/12/28 09:35:37;;;;;;;4.32;0.50;;;7.60;93.10;;;;;;5091030;28;20051;-72
2021/12/28 09:38:05;;;;;;;2.55;0.50;;;7.50;93.10;;;;;;5091414;28;20040;-72
2021/12/28 09:40:34;;;;;;;2.20;0.60;;;7.50;93.20;;;;;;5072057;28;20055;-72
2021/12/28 09:43:07;;;;;;;2.40;0.60;;;7.50;93.30;;;;;;5090112;28;20781;-72
2021/12/28 09:45:36;;;;;;;3.13;0.40;;;7.50;93.40;;;;;;5072868;28;20054;-72
2021/12/28 09:48:04;;;;;;;1.45;0.38;;;7.50;93.40;;;;;;5092103;28;20044;-73
2021/12/28 09:50:32;;;;;;;5.70;0.70;;;7.50;93.40;;;;;;5092765;28;20047;-73
2021/12/28 09:53:01;;;;;;;0.93;0.40;;;7.50;93.50;;;;;;5092956;28;20198;-73
2021/12/28 09:55:30;;;;;;;1.50;0.50;;;7.50;93.50;;;;;;5073016;28;20040;-73
2021/12/28 09:57:59;;;;;;;2.53;1.00;;;7.50;93.60;;;;;;5091171;28;20130;-73
2021/12/28 10:00:27;;;;;;;6.65;2.05;;;7.50;93.60;;;;;;5092184;28;20048;-73
2021/12/28 10:03:13;;;;;;;5.13;2.80;;;7.60;93.60;;;;;;5053838;28;20036;-73
2021/12/28 10:05:42;;;;;;;7.60;5.63;;;7.50;93.70;;;;;;5091606;28;20044;-73
2021/12/28 10:08:10;;;;;;;16.17;9.10;;;7.50;93.80;;;;;;5091885;28;20040;-73
2021/12/28 10:10:41;;;;;;;23.60;12.70;;;7.60;93.80;;;;;;5092267;28;20047;-73
2021/12/28 10:13:17;;;;;;;23.17;14.02;;;7.60;93.90;;;;;;5073920;28;20048;-73
2021/12/28 10:15:47;;;;;;;27.27;16.08;;;7.60;94.00;;;;;;5090269;28;20044;-73
2021/12/28 10:18:15;;;;;;;36.80;18.20;;;7.70;94.10;;;;;;5089389;28;20044;-74
2021/12/28 10:20:51;;;;;;;43.80;20.98;;;7.70;94.20;;;;;;5073755;28;20040;-73
2021/12/28 10:23:32;;;;;;;49.95;22.60;;;7.80;94.30;;;;;;5088912;28;20522;-73
2021/12/28 10:26:05;;;;;;;53.92;22.92;;;7.80;94.50;;;;;;5086761;28;20055;-73
2021/12/28 10:28:36;;;;;;;48.00;22.40;;;7.90;94.60;;;;;;5072443;28;20055;-73
2021/12/28 10:31:17;;;;;;;34.25;18.13;;;7.90;94.70;;;;;;5086113;28;20044;-73
2021/12/28 10:33:45;;;;;;;26.42;16.02;;;8.00;94.70;;;;;;5089459;28;20050;-73
2021/12/28 10:36:16;;;;;;;17.17;10.85;;;8.10;94.70;;;;;;5079408;28;20052;-73
2021/12/28 10:38:50;;;;;;;9.63;7.50;;;8.10;94.70;;;;;;5087541;28;20043;-73
2021/12/28 10:41:21;;;;;;;14.05;10.20;;;8.20;94.70;;;;;;5053872;28;20056;-72
2021/12/28 10:43:51;;;;;;;13.40;9.95;;;8.20;94.70;;;;;;5082808;28;20055;-73
2021/12/28 10:46:22;;;;;;;13.20;9.55;;;8.20;94.70;;;;;;5073766;28;20515;-74
2021/12/28 10:48:53;;;;;;;19.20;13.20;;;8.20;94.70;;;;;;5083669;28;20055;-73
2021/12/28 10:51:27;;;;;;;18.65;11.85;;;8.20;94.70;;;;;;5090757;28;20394;-73
2021/12/28 10:54:12;;;;;;;23.17;13.60;;;8.20;94.70;;;;;;5083692;28;20040;-73
2021/12/28 10:56:46;;;;;;;20.85;12.88;;;8.20;94.80;;;;;;5069482;28;20036;-74
2021/12/28 10:59:24;;;;;;;15.63;10.57;;;8.20;94.80;;;;;;5085684;28;20483;-73
2021/12/28 11:01:53;;;;;;;19.08;12.77;;;8.20;94.80;;;;;;5085670;28;20502;-73
2021/12/28 11:04:37;;;;;;;23.50;14.93;;;8.20;94.80;;;;;;5087242;28;20487;-73
2021/12/28 11:07:08;;;;;;;20.85;14.63;;;8.20;94.90;;;;;;5070990;28;20045;-73
2021/12/28 11:09:49;;;;;;;21.40;16.17;;;8.20;94.90;;;;;;5071684;28;20041;-73
2021/12/28 11:12:17;;;;;;;22.30;17.15;;;8.20;94.90;;;;;;5074193;28;20440;-73
2021/12/28 11:14:46;;;;;;;22.75;17.88;;;8.20;94.90;;;;;;5086709;28;20055;-74
2021/12/28 11:17:13;;;;;;;19.08;14.98;;;8.20;94.90;;;;;;5087880;28;20048;-73
2021/12/28 11:19:41;;;;;;;20.08;16.02;;;8.20;94.80;;;;;;5088212;28;20375;-73
2021/12/28 11:22:11;;;;;;;16.42;12.70;;;8.30;94.80;;;;;;5091059;28;20403;-73
2021/12/28 11:24:43;;;;;;;10.00;8.95;;;8.20;94.80;;;;;;5071116;28;20040;-74
2021/12/28 11:27:24;;;;;;;12.18;9.93;;;8.20;94.80;;;;;;5085909;28;20075;-73
2021/12/28 11:29:59;;;;;;;10.43;8.88;;;8.20;94.80;;;;;;5069036;28;20036;-74
2021/12/28 11:32:28;;;;;;;8.80;6.93;;;8.20;94.70;;;;;;5070334;28;20059;-74
2021/12/28 11:34:56;;;;;;;9.63;7.00;;;8.20;94.60;;;;;;5063498;28;20044;-74
2021/12/28 11:37:26;;;;;;;10.98;8.10;;;8.20;94.40;;;;;;5090041;28;20051;-74
2021/12/28 11:39:59;;;;;;;9.77;6.85;;;8.20;94.40;;;;;;5072457;28;20052;-75
2021/12/28 11:42:29;;;;;;;9.00;6.17;;;8.10;94.30;;;;;;5089456;28;20052;-74
2021/12/28 11:44:57;;;;;;;8.77;7.30;;;8.10;94.20;;;;;;5089111;28;20044;-74
2021/12/28 11:47:25;;;;;;;10.18;7.85;;;8.10;94.20;;;;;;5081041;28;20051;-74
2021/12/28 11:49:57;;;;;;;12.60;8.27;;;8.10;94.20;;;;;;5089090;28;20399;-74
2021/12/28 11:52:25;;;;;;;12.50;9.38;;;8.10;94.30;;;;;;5067399;28;20044;-74
2021/12/28 11:54:54;;;;;;;11.45;8.95;;;8.10;94.30;;;;;;5088457;28;20036;-69
2021/12/28 11:57:30;;;;;;;14.73;8.70;;;8.10;94.30;;;;;;5086517;28;20406;-73
2021/12/28 12:00:03;;;;;;;22.73;14.15;;;8.10;94.40;;;;;;5088982;28;20048;-68
2021/12/28 12:02:49;;;;;;;24.85;14.88;;;8.10;94.40;;;;;;5090686;28;20050;-68
2021/12/28 12:05:24;;;;;;;26.23;14.25;;;8.10;94.40;;;;;;5092135;28;20059;-68
2021/12/28 12:08:06;;;;;;;21.10;13.82;;;8.10;94.40;;;;;;5091513;28;20039;-69
2021/12/28 12:10:36;;;;;;;14.18;8.18;;;8.00;94.40;;;;;;5093067;28;20054;-68
2021/12/28 12:13:20;;;;;;;12.20;8.65;;;8.00;94.40;;;;;;5073120;28;20080;-68
2021/12/28 12:16:00;;;;;;;11.27;7.70;;;8.00;94.40;;;;;;5055083;28;20518;-69
2021/12/28 12:18:32;;;;;;;7.28;6.20;;;8.00;94.40;;;;;;5073090;28;20044;-68
2021/12/28 12:21:05;;;;;;;8.63;5.65;;;8.00;94.30;;;;;;5055662;28;20295;-68
2021/12/28 12:23:47;;;;;;;8.57;5.88;;;8.00;94.30;;;;;;5093220;28;20062;-68
2021/12/28 12:26:23;;;;;;;6.47;5.73;;;8.10;94.30;;;;;;5093223;28;20044;-68
2021/12/28 12:28:53;;;;;;;9.10;6.00;;;8.00;94.30;;;;;;5093269;28;20036;-68
2021/12/28 12:31:37;;;;;;;9.45;6.32;;;8.00;94.40;;;;;;5093399;28;20040;-68
2021/12/28 12:34:29;;;;;;;9.15;6.50;;;8.10;94.40;;;;;;5093715;28;20052;-68
2021/12/28 12:36:57;;;;;;;10.90;6.15;;;8.10;94.40;;;;;;5074668;28;20044;-68
2021/12/28 12:39:36;;;;;;;10.23;6.75;;;8.10;94.40;;;;;;5075015;28;20475;-68
2021/12/28 12:42:03;;;;;;;6.88;5.10;;;8.10;94.40;;;;;;5074333;28;20068;-68
2021/12/28 12:44:38;;;;;;;4.60;4.20;;;8.10;94.40;;;;;;5074509;28;20391;-68
2021/12/28 12:47:07;;;;;;;13.75;7.90;;;8.20;94.50;;;;;;5056606;28;20043;-69
2021/12/28 12:49:36;;;;;;;6.78;5.70;;;8.20;94.40;;;;;;5077266;28;20048;-69
2021/12/28 12:52:18;;;;;;;6.47;5.88;;;8.20;94.40;;;;;;5076716;28;20510;-69
2021/12/28 12:54:51;;;;;;;6.82;6.22;;;8.20;94.40;;;;;;5094854;28;20048;-68